Kansas City, Missouri
Traffic Map
Current Weather Conditions
Kansas City, Missouri
Clear
Clear
78°
Feels Like: 80°
Wind Chill: 78° Ceiling: Unl
Heat Index: 80° Visibility: 10mi
Dew Point: 72° Wind: 5mph
Humidity: 81% Direction: 120° (ESE)
Pressure: 29.96in Gusts: 0mph
Raw Report DataKMKC 280854Z 12004KT 10SM CLR 26/22 A2996 RMK AO2 SLP138 T02560222 56016
Traffic Incident Summary
Active as of:
Severity:
Category:
InformationThere was an issue retrieving the traffic information for this location. Please try a different location or try again shortly.
Advertisements
Track Severe Weather on mobile